Time;durP1;ratioP1;P1;durP2;ratioP2;P2;SDS_P1;SDS_P2;PMS_P1;PMS_P2;Temp;Humidity;BMP_temperature;BMP_pressure;BME280_temperature;BME280_humidity;BME280_pressure;Samples;Min_cycle;Max_cycle;Signal;HPM_P1;HPM_P2
2021/12/13 00:01:56;;;;;;;41.05;19.17;;;6.00;99.90;;;;;;5066940;28;20044;-68
2021/12/13 00:04:26;;;;;;;43.28;18.65;;;5.90;99.90;;;;;;5069049;28;20039;-66
2021/12/13 00:07:01;;;;;;;40.13;18.67;;;6.00;99.90;;;;;;5052022;28;20090;-66
2021/12/13 00:09:30;;;;;;;43.90;19.35;;;6.00;99.90;;;;;;5069182;28;20100;-68
2021/12/13 00:12:00;;;;;;;41.33;19.52;;;6.00;99.90;;;;;;5069017;28;20024;-68
2021/12/13 00:14:33;;;;;;;45.83;18.80;;;6.00;99.90;;;;;;4366811;28;10000801;-66
2021/12/13 00:17:15;;;;;;;47.45;21.23;;;6.00;99.90;;;;;;5066058;28;20116;-66
2021/12/13 00:19:45;;;;;;;41.08;19.48;;;6.00;99.90;;;;;;5066511;28;20021;-66
2021/12/13 00:22:19;;;;;;;46.53;19.73;;;6.10;99.90;;;;;;5065687;28;20035;-67
2021/12/13 00:24:47;;;;;;;35.15;18.98;;;6.10;99.90;;;;;;5065542;28;20017;-67
2021/12/13 00:27:14;;;;;;;38.67;18.23;;;6.10;99.90;;;;;;5066093;28;20043;-70
2021/12/13 00:29:46;;;;;;;42.58;18.88;;;4.30;99.90;;;;;;5066694;28;20840;-68
2021/12/13 00:32:40;;;;;;;42.90;19.42;;;6.10;99.90;;;;;;5065582;28;20091;-66
2021/12/13 00:35:11;;;;;;;44.15;20.15;;;6.20;99.90;;;;;;5033770;28;20677;-68
2021/12/13 00:37:44;;;;;;;44.15;20.88;;;6.20;99.90;;;;;;5061542;28;20032;-66
2021/12/13 00:40:18;;;;;;;30.67;17.83;;;8.70;99.90;;;;;;5058551;28;20025;-67
2021/12/13 00:42:51;;;;;;;39.40;18.42;;;6.30;99.90;;;;;;5048647;28;20036;-66
2021/12/13 00:45:20;;;;;;;34.00;17.80;;;6.30;99.90;;;;;;5068185;28;20498;-66
2021/12/13 00:47:46;;;;;;;41.72;19.23;;;6.30;99.90;;;;;;5070050;28;20036;-66
2021/12/13 00:50:36;;;;;;;33.70;18.65;;;6.30;99.90;;;;;;5051797;28;20021;-66
2021/12/13 00:53:03;;;;;;;36.90;19.00;;;6.30;99.90;;;;;;5048007;28;20404;-66
2021/12/13 00:55:32;;;;;;;32.72;18.90;;;6.40;99.90;;;;;;5068892;28;20593;-67
2021/12/13 00:58:14;;;;;;;38.30;19.40;;;6.30;99.90;;;;;;5069460;28;20037;-66
2021/12/13 01:00:42;;;;;;;32.03;17.65;;;6.40;99.90;;;;;;5070610;28;20052;-68
2021/12/13 01:03:14;;;;;;;34.60;19.63;;;6.40;99.90;;;;;;5071222;28;20486;-67
2021/12/13 01:06:17;;;;;;;34.15;18.98;;;6.40;99.90;;;;;;5074208;28;20418;-67
2021/12/13 01:09:10;;;;;;;40.35;20.55;;;6.40;99.90;;;;;;5078076;28;20031;-67
2021/12/13 01:11:55;;;;;;;35.03;18.15;;;6.40;99.90;;;;;;5059836;28;20077;-72
2021/12/13 01:14:34;;;;;;;34.92;18.90;;;6.40;99.90;;;;;;5069038;28;20498;-67
2021/12/13 01:17:17;;;;;;;33.13;18.40;;;6.40;99.90;;;;;;5056080;28;20058;-68
2021/12/13 01:19:53;;;;;;;32.80;18.42;;;6.40;99.90;;;;;;5068092;28;20016;-71
2021/12/13 01:26:02;;;;;;;40.42;18.60;;;6.50;99.90;;;;;;5060776;28;20035;-66
2021/12/13 01:28:32;;;;;;;33.22;17.52;;;6.40;99.90;;;;;;5051685;28;20028;-66
2021/12/13 01:31:12;;;;;;;36.67;17.95;;;6.40;99.90;;;;;;5069826;28;20059;-66
2021/12/13 01:33:41;;;;;;;40.78;18.33;;;6.30;99.90;;;;;;5063774;28;20017;-68
2021/12/13 01:36:09;;;;;;;38.30;19.67;;;6.30;99.90;;;;;;5071755;28;20024;-69
2021/12/13 01:38:44;;;;;;;48.88;20.90;;;6.30;99.90;;;;;;5067575;28;20507;-69
2021/12/13 01:41:43;;;;;;;43.20;20.08;;;6.30;99.90;;;;;;5069524;28;20405;-68
2021/12/13 01:44:28;;;;;;;40.28;19.13;;;6.40;99.90;;;;;;5071397;28;20091;-68
2021/12/13 01:46:58;;;;;;;42.50;19.73;;;6.40;99.90;;;;;;5072013;28;20024;-69
2021/12/13 01:49:30;;;;;;;40.40;19.42;;;6.40;99.90;;;;;;5071872;28;20032;-68
2021/12/13 01:51:58;;;;;;;49.55;22.60;;;6.40;99.90;;;;;;5071604;28;20402;-70
2021/12/13 01:54:25;;;;;;;46.67;20.73;;;6.40;99.90;;;;;;5071904;28;20046;-69
2021/12/13 02:00:17;;;;;;;42.55;20.50;;;6.50;99.90;;;;;;5035793;28;20043;-69
2021/12/13 02:02:52;;;;;;;44.38;20.25;;;6.50;99.90;;;;;;5066154;28;20029;-68
2021/12/13 02:05:23;;;;;;;;;;;6.40;99.90;;;;;;5071086;28;20116;-69
2021/12/13 02:07:55;;;;;;;42.22;20.55;;;6.50;99.90;;;;;;5071322;28;20258;-69
2021/12/13 02:10:29;;;;;;;55.05;22.85;;;6.50;99.90;;;;;;5071771;28;20054;-69
2021/12/13 02:13:00;;;;;;;41.90;20.15;;;6.50;99.90;;;;;;5053203;28;20031;-69
2021/12/13 02:18:20;;;;;;;44.72;21.05;;;6.50;99.90;;;;;;5072011;28;20032;-68
2021/12/13 02:20:52;;;;;;;48.78;21.10;;;6.40;99.90;;;;;;5071469;28;20070;-68
2021/12/13 02:23:20;;;;;;;48.03;20.23;;;6.40;99.90;;;;;;5071213;28;20059;-68
2021/12/13 02:25:52;;;;;;;43.83;20.08;;;6.40;99.90;;;;;;5071492;28;20107;-69
2021/12/13 02:28:21;;;;;;;55.67;23.02;;;6.40;99.90;;;;;;5071007;28;20032;-69
2021/12/13 02:30:54;;;;;;;50.58;21.98;;;6.40;99.90;;;;;;5071204;28;20700;-68
2021/12/13 02:33:25;;;;;;;46.90;21.33;;;6.40;99.90;;;;;;5053054;28;20028;-69
2021/12/13 02:35:55;;;;;;;46.85;21.23;;;6.40;99.90;;;;;;5071318;28;20038;-68
2021/12/13 02:38:22;;;;;;;42.30;21.00;;;6.40;99.90;;;;;;5071053;28;20056;-68
2021/12/13 02:40:48;;;;;;;49.38;21.17;;;6.40;99.90;;;;;;5071438;28;20032;-69
2021/12/13 02:43:19;;;;;;;48.67;20.70;;;6.40;99.90;;;;;;5052984;28;20029;-69
2021/12/13 02:45:49;;;;;;;46.28;20.15;;;6.40;99.90;;;;;;5070966;28;20426;-69
2021/12/13 02:48:18;;;;;;;49.03;20.20;;;6.40;99.90;;;;;;5071123;28;20017;-69
2021/12/13 02:50:58;;;;;;;44.75;20.33;;;6.50;99.90;;;;;;5071628;28;20032;-68
2021/12/13 02:53:44;;;;;;;48.30;20.45;;;6.40;99.90;;;;;;5070726;28;20019;-69
2021/12/13 02:56:11;;;;;;;51.35;20.95;;;6.50;99.90;;;;;;5070914;28;20025;-67
2021/12/13 02:58:38;;;;;;;51.85;20.42;;;6.50;99.90;;;;;;5070838;28;20033;-69
2021/12/13 03:01:12;;;;;;;47.33;20.15;;;6.50;99.90;;;;;;5051839;28;20039;-69
2021/12/13 03:03:47;;;;;;;52.63;20.42;;;6.50;99.90;;;;;;5070760;28;20024;-69
2021/12/13 03:06:18;;;;;;;50.00;20.83;;;6.50;99.90;;;;;;5071335;28;20493;-70
2021/12/13 03:08:51;;;;;;;50.00;19.95;;;6.50;99.90;;;;;;5071098;28;20017;-69
2021/12/13 03:11:24;;;;;;;51.63;19.85;;;6.50;99.90;;;;;;5053455;28;20024;-69
2021/12/13 03:13:55;;;;;;;51.88;21.92;;;6.50;99.90;;;;;;5070934;28;20024;-70
2021/12/13 03:16:27;;;;;;;45.08;19.45;;;6.50;99.90;;;;;;5070818;28;20057;-68
2021/12/13 03:19:08;;;;;;;48.60;19.77;;;6.60;99.90;;;;;;5072964;28;20498;-69
2021/12/13 03:21:52;;;;;;;39.50;18.25;;;6.60;99.90;;;;;;5074641;28;20371;-68
2021/12/13 03:24:37;;;;;;;49.03;19.23;;;5.30;99.90;;;;;;5074458;28;20047;-68
2021/12/13 03:27:21;;;;;;;;;;;6.50;99.90;;;;;;5075219;28;20031;-68
2021/12/13 03:30:17;;;;;;;45.97;18.98;;;6.50;99.90;;;;;;5074390;28;20001;-69
2021/12/13 03:33:14;;;;;;;55.88;20.45;;;6.60;99.90;;;;;;5074325;28;20016;-69
2021/12/13 03:35:44;;;;;;;56.35;19.65;;;6.50;99.90;;;;;;5069521;28;20151;-69
2021/12/13 03:38:37;;;;;;;53.45;20.48;;;6.60;99.90;;;;;;5074270;28;20029;-70
2021/12/13 03:41:13;;;;;;;53.55;20.10;;;6.50;99.90;;;;;;5065703;28;20036;-69
2021/12/13 03:44:02;;;;;;;54.17;21.42;;;6.50;99.90;;;;;;5074078;28;20055;-69
2021/12/13 03:46:32;;;;;;;51.05;20.73;;;6.40;99.90;;;;;;5073213;28;20564;-69
2021/12/13 03:49:00;;;;;;;57.53;20.52;;;6.50;99.90;;;;;;5074089;28;20123;-69
2021/12/13 03:51:30;;;;;;;55.50;21.33;;;6.50;99.90;;;;;;5055987;28;20085;-70
2021/12/13 03:53:57;;;;;;;50.70;19.50;;;6.60;99.90;;;;;;5073643;28;20029;-69
2021/12/13 03:56:28;;;;;;;55.35;20.45;;;6.60;99.90;;;;;;5056230;28;20028;-69
2021/12/13 03:58:59;;;;;;;52.08;19.55;;;6.60;99.90;;;;;;5073698;28;20129;-69
2021/12/13 04:01:29;;;;;;;60.22;20.75;;;6.60;99.90;;;;;;5074221;28;20138;-70
2021/12/13 04:03:58;;;;;;;67.28;21.65;;;6.70;99.90;;;;;;5073544;28;20375;-71
2021/12/13 04:06:24;;;;;;;57.15;19.40;;;6.70;99.90;;;;;;5073553;28;20033;-69
2021/12/13 04:08:55;;;;;;;60.70;21.98;;;6.70;99.90;;;;;;5082461;28;20098;-69
2021/12/13 04:11:23;;;;;;;57.45;20.15;;;6.70;99.90;;;;;;5084266;28;20420;-69
2021/12/13 04:14:09;;;;;;;62.92;21.58;;;6.70;99.90;;;;;;5074230;28;20033;-69
2021/12/13 04:16:50;;;;;;;61.03;19.02;;;6.70;99.90;;;;;;5073462;28;20482;-69
2021/12/13 04:19:19;;;;;;;54.97;19.33;;;6.80;99.90;;;;;;5073733;28;20036;-67
2021/12/13 04:21:56;;;;;;;66.38;21.05;;;6.70;99.90;;;;;;5073320;28;20033;-69
2021/12/13 04:24:35;;;;;;;58.33;20.77;;;6.70;99.90;;;;;;5073141;28;20116;-67
2021/12/13 04:27:19;;;;;;;63.55;19.92;;;6.80;99.90;;;;;;5055397;28;20066;-69
2021/12/13 04:29:47;;;;;;;69.10;22.58;;;6.80;99.90;;;;;;5073464;28;20038;-69
2021/12/13 04:32:25;;;;;;;62.30;20.50;;;6.70;99.90;;;;;;5072958;28;20039;-69
2021/12/13 04:34:54;;;;;;;73.57;22.60;;;6.70;99.90;;;;;;5073649;28;20029;-69
2021/12/13 04:37:23;;;;;;;60.17;20.40;;;6.70;99.90;;;;;;5073101;28;20120;-68
2021/12/13 04:39:55;;;;;;;51.97;18.88;;;6.60;99.90;;;;;;5055319;28;20028;-69
2021/12/13 04:42:23;;;;;;;69.35;19.63;;;6.60;99.90;;;;;;5072939;28;20031;-69
2021/12/13 04:44:52;;;;;;;64.65;21.55;;;6.60;99.90;;;;;;5074450;28;20036;-66
2021/12/13 04:47:32;;;;;;;73.43;19.35;;;6.60;99.90;;;;;;5075289;28;20048;-69
2021/12/13 04:50:14;;;;;;;68.57;21.67;;;6.50;99.90;;;;;;5055252;28;20017;-69
2021/12/13 04:52:41;;;;;;;68.40;21.27;;;6.50;99.90;;;;;;5072679;28;20020;-68
2021/12/13 04:55:15;;;;;;;76.47;22.05;;;6.50;99.90;;;;;;5073345;28;20107;-70
2021/12/13 04:57:42;;;;;;;76.28;23.30;;;6.50;99.90;;;;;;5072442;28;20174;-68
2021/12/13 05:00:19;;;;;;;73.45;21.02;;;6.60;99.90;;;;;;5073100;28;20067;-71
2021/12/13 05:02:48;;;;;;;70.80;20.85;;;6.50;99.90;;;;;;5072317;28;20025;-68
2021/12/13 05:05:16;;;;;;;71.30;20.25;;;6.60;99.90;;;;;;5072472;28;20371;-70
2021/12/13 05:07:44;;;;;;;82.38;21.08;;;6.60;99.90;;;;;;5072358;28;20048;-71
2021/12/13 05:10:12;;;;;;;73.30;22.13;;;6.60;99.90;;;;;;5072848;28;20025;-70
2021/12/13 05:12:38;;;;;;;83.63;20.70;;;6.70;99.90;;;;;;5054137;28;20395;-69
2021/12/13 05:15:10;;;;;;;80.47;20.98;;;6.70;99.90;;;;;;5072163;28;20412;-70
2021/12/13 05:17:45;;;;;;;72.65;20.83;;;6.70;99.90;;;;;;5072506;28;20024;-70
2021/12/13 05:20:26;;;;;;;75.93;21.25;;;6.70;99.90;;;;;;5072798;28;20395;-69
2021/12/13 05:22:58;;;;;;;74.90;20.35;;;6.70;99.90;;;;;;5071818;28;20063;-70
2021/12/13 05:25:35;;;;;;;88.93;20.75;;;6.60;99.90;;;;;;5071790;28;20033;-70
2021/12/13 05:28:07;;;;;;;72.13;19.63;;;6.60;99.90;;;;;;5072292;28;20033;-70
2021/12/13 05:30:35;;;;;;;77.75;19.77;;;6.60;99.90;;;;;;5071745;28;20115;-70
2021/12/13 05:33:06;;;;;;;82.38;21.20;;;6.60;99.90;;;;;;5071933;28;20032;-70
2021/12/13 05:35:37;;;;;;;73.68;19.60;;;6.60;99.90;;;;;;5071506;28;20033;-71
2021/12/13 05:38:08;;;;;;;73.30;19.33;;;6.60;99.90;;;;;;5071693;28;20596;-70
2021/12/13 05:40:45;;;;;;;83.20;21.42;;;6.70;99.90;;;;;;5053607;28;20139;-70
2021/12/13 05:43:27;;;;;;;69.45;17.77;;;6.70;99.90;;;;;;5071353;28;20494;-69
2021/12/13 05:45:56;;;;;;;75.28;19.92;;;6.70;99.90;;;;;;5071179;28;20036;-70
2021/12/13 05:48:34;;;;;;;73.03;18.30;;;6.60;99.90;;;;;;5071144;28;20017;-69
2021/12/13 05:51:04;;;;;;;77.65;19.33;;;6.70;99.90;;;;;;5071446;28;20021;-70
2021/12/13 05:53:42;;;;;;;67.70;17.45;;;6.70;99.90;;;;;;5071438;28;20020;-69
2021/12/13 05:56:15;;;;;;;84.78;19.50;;;6.70;99.90;;;;;;5053549;28;20035;-69
2021/12/13 05:58:50;;;;;;;74.60;18.35;;;6.70;99.90;;;;;;5071595;28;20029;-69
2021/12/13 06:01:30;;;;;;;78.72;19.17;;;6.60;99.90;;;;;;5071461;28;20036;-68
2021/12/13 06:04:07;;;;;;;74.40;17.33;;;6.60;99.90;;;;;;5070775;28;20028;-70
2021/12/13 06:06:54;;;;;;;86.85;18.98;;;6.60;99.90;;;;;;5071497;28;20052;-69
2021/12/13 06:09:42;;;;;;;71.40;15.77;;;6.60;99.90;;;;;;5071410;28;20020;-69
2021/12/13 06:12:12;;;;;;;80.95;19.63;;;6.60;99.90;;;;;;5071276;28;20025;-68
2021/12/13 06:14:38;;;;;;;85.60;18.08;;;6.60;99.90;;;;;;5071560;28;20017;-68
2021/12/13 06:17:31;;;;;;;74.20;17.45;;;6.60;99.90;;;;;;5053141;28;20051;-67
2021/12/13 06:20:04;;;;;;;81.13;18.95;;;6.50;99.90;;;;;;5067704;28;20040;-69
2021/12/13 06:22:31;;;;;;;89.43;21.00;;;6.40;99.90;;;;;;5071049;28;20052;-67
2021/12/13 06:25:06;;;;;;;84.22;19.83;;;6.50;99.90;;;;;;5070922;28;20033;-68
2021/12/13 06:27:55;;;;;;;98.45;19.83;;;6.50;99.90;;;;;;5071245;28;20489;-68
2021/12/13 06:30:22;;;;;;;87.78;19.10;;;6.60;99.90;;;;;;5071161;28;20052;-70
2021/12/13 06:32:57;;;;;;;92.05;20.48;;;6.60;99.90;;;;;;5070976;28;20040;-69
2021/12/13 06:36:13;;;;;;;76.50;20.70;;;6.60;99.90;;;;;;5070782;28;20044;-69
2021/12/13 06:38:48;;;;;;;98.25;21.30;;;6.60;99.90;;;;;;5041877;28;20079;-68
2021/12/13 06:41:26;;;;;;;85.57;19.17;;;6.70;99.90;;;;;;5067311;28;20083;-68
2021/12/13 06:43:59;;;;;;;89.43;20.65;;;6.70;99.90;;;;;;5070077;28;20129;-67
2021/12/13 06:46:25;;;;;;;96.97;19.33;;;6.70;99.90;;;;;;5070160;28;20028;-70
2021/12/13 06:48:59;;;;;;;88.03;19.92;;;6.70;99.90;;;;;;5052589;28;20027;-70
2021/12/13 06:51:49;;;;;;;82.43;18.37;;;6.70;99.90;;;;;;4353373;28;10000730;-70
2021/12/13 06:54:39;;;;;;;115.72;19.80;;;6.70;99.90;;;;;;5069493;28;20433;-70
2021/12/13 06:57:09;;;;;;;88.97;18.23;;;6.70;99.90;;;;;;5070212;28;20541;-70
2021/12/13 06:59:46;;;;;;;87.82;21.30;;;6.70;99.90;;;;;;5070748;28;20418;-70
2021/12/13 07:02:16;;;;;;;92.55;19.48;;;6.70;99.90;;;;;;5070662;28;20040;-70
2021/12/13 07:04:51;;;;;;;100.50;21.25;;;6.70;99.90;;;;;;5053483;28;20075;-69
2021/12/13 07:07:19;;;;;;;89.72;20.98;;;6.70;99.90;;;;;;5071201;28;20417;-68
2021/12/13 07:10:00;;;;;;;84.53;21.25;;;6.70;99.90;;;;;;5069975;28;20139;-70
2021/12/13 07:12:31;;;;;;;85.78;19.25;;;6.70;99.90;;;;;;5070965;28;20354;-69
2021/12/13 07:14:59;;;;;;;91.13;20.73;;;6.80;99.90;;;;;;5071627;28;20024;-70
2021/12/13 07:17:31;;;;;;;97.25;21.20;;;6.80;99.90;;;;;;5071285;28;20017;-67
2021/12/13 07:20:00;;;;;;;111.07;21.77;;;6.70;99.90;;;;;;5071492;28;20029;-70
2021/12/13 07:22:29;;;;;;;106.47;22.25;;;6.70;99.90;;;;;;5071049;28;20050;-69
2021/12/13 07:25:10;;;;;;;87.05;21.02;;;6.80;99.90;;;;;;5070761;28;20428;-70
2021/12/13 07:27:48;;;;;;;95.70;22.00;;;6.80;99.90;;;;;;4940989;28;10000986;-69
2021/12/13 07:30:22;;;;;;;99.03;21.25;;;6.80;99.90;;;;;;5051144;28;20222;-70
2021/12/13 07:32:57;;;;;;;80.57;19.80;;;6.90;99.90;;;;;;5061112;28;20029;-68
2021/12/13 07:35:41;;;;;;;88.93;20.45;;;6.90;99.90;;;;;;5071256;28;20036;-68
2021/12/13 07:38:22;;;;;;;77.82;18.80;;;6.80;99.90;;;;;;5072790;28;20028;-69
2021/12/13 07:41:00;;;;;;;89.60;22.40;;;6.90;99.90;;;;;;5073085;28;20078;-70
2021/12/13 07:43:29;;;;;;;78.18;18.67;;;6.50;99.90;;;;;;5073716;28;20478;-69
2021/12/13 07:46:06;;;;;;;80.80;20.20;;;6.80;99.90;;;;;;5070065;28;20042;-69
2021/12/13 07:48:40;;;;;;;68.70;19.15;;;6.80;99.90;;;;;;5055964;28;20070;-69
2021/12/13 07:51:15;;;;;;;79.63;17.95;;;6.90;99.90;;;;;;5072656;28;20031;-67
2021/12/13 07:53:52;;;;;;;66.20;16.98;;;6.80;99.90;;;;;;5073530;28;20448;-66
2021/12/13 07:56:22;;;;;;;76.07;17.52;;;6.80;99.90;;;;;;5073483;28;20033;-68
2021/12/13 07:58:56;;;;;;;74.35;20.00;;;6.90;99.90;;;;;;5065625;28;20033;-70
2021/12/13 08:01:25;;;;;;;75.65;18.48;;;6.80;99.90;;;;;;5044449;28;20114;-69
2021/12/13 08:04:15;;;;;;;99.50;18.88;;;6.70;99.90;;;;;;5066667;28;20027;-67
2021/12/13 08:06:55;;;;;;;78.32;20.00;;;6.70;99.90;;;;;;5067981;28;20028;-70
2021/12/13 08:09:24;;;;;;;73.82;18.15;;;6.70;99.90;;;;;;5058115;28;20016;-68
2021/12/13 08:12:00;;;;;;;77.53;20.15;;;6.80;99.90;;;;;;5067637;28;20392;-68
2021/12/13 08:14:38;;;;;;;72.63;19.25;;;6.80;99.90;;;;;;5050975;28;20024;-67
2021/12/13 08:17:26;;;;;;;74.80;20.05;;;6.90;99.90;;;;;;5067939;28;20692;-70
2021/12/13 08:20:06;;;;;;;67.30;18.67;;;7.00;99.90;;;;;;5071525;28;20097;-69
2021/12/13 08:22:34;;;;;;;73.15;19.67;;;7.10;99.90;;;;;;5056130;28;20494;-70
2021/12/13 08:25:07;;;;;;;71.57;20.65;;;7.10;99.90;;;;;;5066959;28;20044;-68
2021/12/13 08:27:42;;;;;;;64.18;20.13;;;7.20;99.90;;;;;;5065098;28;20033;-68
2021/12/13 08:30:22;;;;;;;62.08;19.63;;;7.30;99.90;;;;;;5069813;28;20028;-69
2021/12/13 08:33:11;;;;;;;73.15;19.50;;;7.30;99.90;;;;;;5070694;28;20035;-68
2021/12/13 08:35:57;;;;;;;59.78;18.13;;;7.40;99.90;;;;;;5070655;28;20031;-69
2021/12/13 08:38:46;;;;;;;61.08;19.20;;;7.50;99.90;;;;;;5067925;28;20029;-69
2021/12/13 08:41:15;;;;;;;63.45;20.00;;;7.60;99.90;;;;;;5066766;28;20127;-70
2021/12/13 08:43:45;;;;;;;63.25;19.00;;;7.60;99.90;;;;;;5066956;28;20082;-73
2021/12/13 08:46:14;;;;;;;59.85;18.63;;;7.60;99.90;;;;;;5068009;28;20021;-69
2021/12/13 08:48:50;;;;;;;56.70;18.30;;;7.70;99.90;;;;;;5067901;28;20028;-70
2021/12/13 08:51:23;;;;;;;59.65;17.83;;;8.80;99.90;;;;;;5051317;28;20147;-70
2021/12/13 08:54:05;;;;;;;63.90;19.40;;;7.70;99.90;;;;;;5058671;28;20436;-70
2021/12/13 08:56:34;;;;;;;52.00;18.30;;;7.60;99.90;;;;;;5039190;28;20124;-69
2021/12/13 08:59:12;;;;;;;50.85;18.35;;;7.70;99.90;;;;;;5061273;28;20492;-72
2021/12/13 09:02:18;;;;;;;50.75;17.80;;;7.60;99.90;;;;;;5045901;28;20123;-70
2021/12/13 09:05:08;;;;;;;59.30;19.08;;;7.60;99.90;;;;;;5035946;28;20045;-68
2021/12/13 09:07:34;;;;;;;57.70;18.50;;;7.50;99.90;;;;;;5060023;28;20639;-69
2021/12/13 09:09:59;;;;;;;52.75;17.50;;;7.60;99.90;;;;;;5053899;28;20400;-71
2021/12/13 09:12:44;;;;;;;47.85;17.13;;;7.60;99.90;;;;;;5044952;28;20485;-72
2021/12/13 09:15:22;;;;;;;56.17;19.38;;;7.70;99.90;;;;;;5048017;28;20611;-72
2021/12/13 09:17:50;;;;;;;59.53;18.30;;;7.80;99.90;;;;;;5062285;28;20031;-70
2021/12/13 09:20:51;;;;;;;50.95;17.80;;;7.90;99.90;;;;;;5063506;28;20111;-73
2021/12/13 09:23:24;;;;;;;48.97;17.52;;;8.00;99.90;;;;;;5010188;28;20045;-71
2021/12/13 09:26:02;;;;;;;39.67;16.75;;;8.00;99.90;;;;;;5062754;28;20028;-71
2021/12/13 09:28:34;;;;;;;49.53;17.83;;;8.10;99.90;;;;;;5060341;28;20015;-71
2021/12/13 09:31:17;;;;;;;48.03;17.33;;;8.10;99.90;;;;;;5059819;28;20123;-73
2021/12/13 09:33:47;;;;;;;48.13;17.85;;;8.20;99.90;;;;;;5062194;28;20017;-70
2021/12/13 09:36:18;;;;;;;33.00;13.65;;;8.30;99.90;;;;;;5061963;28;20031;-70
2021/12/13 09:39:12;;;;;;;44.80;16.50;;;10.40;99.90;;;;;;5062228;28;20041;-73
2021/12/13 09:41:57;;;;;;;35.20;15.02;;;8.70;99.90;;;;;;5056054;28;20032;-71
2021/12/13 09:44:55;;;;;;;;;;;8.50;99.90;;;;;;5061517;28;20020;-71
2021/12/13 09:47:34;;;;;;;31.63;13.45;;;8.40;99.90;;;;;;5043649;28;19927;-69
2021/12/13 09:50:09;;;;;;;35.20;13.77;;;8.30;99.90;;;;;;5062898;28;20028;-69
2021/12/13 09:52:37;;;;;;;;;;;8.30;99.90;;;;;;5059711;28;20048;-72
2021/12/13 09:55:24;;;;;;;27.83;13.10;;;8.30;99.90;;;;;;5061253;28;19958;-68
2021/12/13 09:57:56;;;;;;;23.98;11.35;;;8.10;99.90;;;;;;5055341;28;20029;-70
2021/12/13 10:00:26;;;;;;;33.72;13.60;;;8.10;99.90;;;;;;5030768;28;20269;-72
2021/12/13 10:02:56;;;;;;;26.40;12.00;;;8.10;99.90;;;;;;5058315;28;20024;-69
2021/12/13 10:05:30;;;;;;;29.05;13.35;;;8.10;99.90;;;;;;5061138;28;20036;-69
2021/12/13 10:08:05;;;;;;;41.90;15.20;;;8.10;99.90;;;;;;5063670;28;20024;-69
2021/12/13 10:10:36;;;;;;;28.67;13.60;;;8.60;99.90;;;;;;5061792;28;20365;-70
2021/12/13 10:13:08;;;;;;;26.10;13.25;;;6.00;99.90;;;;;;5062808;28;20029;-70
2021/12/13 10:15:48;;;;;;;30.60;12.70;;;8.40;99.90;;;;;;5063013;28;20051;-71
2021/12/13 10:18:19;;;;;;;33.60;12.73;;;8.50;99.90;;;;;;5063126;28;20486;-70
2021/12/13 10:20:50;;;;;;;28.25;13.10;;;8.60;99.90;;;;;;5062048;28;20116;-69
2021/12/13 10:23:22;;;;;;;27.48;13.07;;;7.60;99.90;;;;;;5060486;28;20448;-67
2021/12/13 10:25:52;;;;;;;35.03;14.43;;;8.90;99.90;;;;;;5060856;28;20410;-68
2021/12/13 10:28:24;;;;;;;29.23;13.25;;;8.90;99.90;;;;;;5043426;28;20020;-70
2021/12/13 10:31:12;;;;;;;29.80;13.38;;;9.00;99.90;;;;;;5044050;28;20440;-69
2021/12/13 10:33:38;;;;;;;35.25;14.05;;;9.00;99.90;;;;;;5058106;28;20098;-70
2021/12/13 10:36:07;;;;;;;32.30;13.48;;;9.10;99.90;;;;;;5060736;28;20078;-71
2021/12/13 10:38:45;;;;;;;29.13;13.70;;;9.00;99.90;;;;;;5050642;28;20159;-68
2021/12/13 10:41:23;;;;;;;29.60;14.60;;;9.00;99.90;;;;;;5062239;28;20717;-73
2021/12/13 10:43:53;;;;;;;36.00;14.52;;;8.90;99.90;;;;;;5062085;28;20044;-68
2021/12/13 10:46:30;;;;;;;38.50;14.40;;;9.00;99.90;;;;;;5060735;28;20135;-69
2021/12/13 10:49:05;;;;;;;36.40;13.88;;;8.90;99.90;;;;;;5061282;28;20111;-68
2021/12/13 10:51:32;;;;;;;;;;;8.80;99.90;;;;;;5061423;28;20390;-68
2021/12/13 10:54:03;;;;;;;25.70;13.48;;;8.80;99.90;;;;;;5058449;28;19909;-70
2021/12/13 10:56:34;;;;;;;40.30;14.43;;;9.30;99.90;;;;;;5061563;28;20033;-70
2021/12/13 10:59:05;;;;;;;31.90;14.70;;;8.50;99.90;;;;;;5043198;28;20028;-68
2021/12/13 11:01:34;;;;;;;44.15;15.77;;;8.90;99.90;;;;;;5060081;28;20112;-69
2021/12/13 11:04:06;;;;;;;37.83;15.85;;;8.70;99.90;;;;;;5057338;28;20107;-69
2021/12/13 11:06:33;;;;;;;33.08;14.85;;;8.90;99.90;;;;;;5058265;28;20029;-70
2021/12/13 11:08:59;;;;;;;32.63;14.77;;;8.90;99.90;;;;;;5062092;28;20082;-69
2021/12/13 11:11:40;;;;;;;35.10;14.65;;;9.00;99.90;;;;;;5056949;28;20064;-68
2021/12/13 11:14:12;;;;;;;36.47;15.50;;;9.00;99.90;;;;;;5049127;28;20029;-69
2021/12/13 11:16:43;;;;;;;24.35;14.38;;;7.80;99.90;;;;;;5055402;28;20066;-72
2021/12/13 11:19:17;;;;;;;25.30;12.85;;;9.10;99.90;;;;;;5060515;28;20056;-69
2021/12/13 11:21:48;;;;;;;30.83;14.60;;;9.10;99.90;;;;;;5059620;28;20113;-69
2021/12/13 11:24:19;;;;;;;24.13;13.23;;;9.10;99.90;;;;;;5020694;28;20032;-70
2021/12/13 11:26:47;;;;;;;27.70;14.57;;;9.10;99.90;;;;;;5061267;28;20102;-69
2021/12/13 11:29:15;;;;;;;27.92;14.30;;;9.00;99.90;;;;;;5058919;28;20035;-70
2021/12/13 11:31:52;;;;;;;38.78;15.98;;;8.90;99.90;;;;;;5060542;28;20020;-70
2021/12/13 11:34:55;;;;;;;33.80;16.25;;;8.90;99.90;;;;;;5060649;28;20060;-71
2021/12/13 11:37:47;;;;;;;42.83;14.48;;;8.90;99.90;;;;;;5058364;28;20029;-69
2021/12/13 11:40:55;;;;;;;30.10;14.65;;;8.90;99.90;;;;;;5061943;28;20112;-71
2021/12/13 11:43:55;;;;;;;50.83;19.08;;;8.90;99.90;;;;;;5080186;22;20650;-69
2021/12/13 11:46:28;;;;;;;87.03;29.48;;;8.90;99.90;;;;;;5062688;28;20024;-69
2021/12/13 11:49:29;;;;;;;76.38;27.30;;;8.90;99.90;;;;;;5060532;28;20025;-69
2021/12/13 11:52:10;;;;;;;44.50;17.73;;;8.90;99.90;;;;;;5057509;28;20054;-68
2021/12/13 11:55:03;;;;;;;58.35;19.70;;;8.90;99.90;;;;;;5065321;28;20537;-72
2021/12/13 11:57:56;;;;;;;52.47;19.05;;;8.80;99.90;;;;;;5052517;28;20509;-70
2021/12/13 12:00:43;;;;;;;49.92;18.38;;;8.80;99.90;;;;;;5064837;28;20017;-68
2021/12/13 12:03:50;;;;;;;47.22;17.88;;;8.90;99.90;;;;;;5061801;28;20036;-71
2021/12/13 12:06:34;;;;;;;44.42;15.85;;;8.90;99.90;;;;;;5059160;28;20082;-71
2021/12/13 12:09:29;;;;;;;35.78;16.35;;;8.90;99.90;;;;;;5061698;28;20021;-67
2021/12/13 12:12:37;;;;;;;34.72;14.65;;;9.00;99.90;;;;;;5056031;28;20479;-70
2021/12/13 12:15:04;;;;;;;29.55;14.25;;;9.20;99.90;;;;;;5062771;28;20029;-69
2021/12/13 12:17:31;;;;;;;28.98;14.40;;;9.30;99.90;;;;;;5061484;28;20268;-68
2021/12/13 12:19:58;;;;;;;28.75;15.73;;;9.40;99.90;;;;;;5063439;28;20016;-68
2021/12/13 12:22:38;;;;;;;20.25;12.43;;;9.60;99.90;;;;;;5063618;28;20478;-69
2021/12/13 12:25:04;;;;;;;19.27;12.63;;;9.60;99.90;;;;;;5062077;28;20047;-69
2021/12/13 12:27:35;;;;;;;15.27;11.82;;;9.60;99.90;;;;;;5064167;28;20086;-66
2021/12/13 12:30:11;;;;;;;21.55;11.50;;;10.40;99.90;;;;;;5045599;28;20020;-67
2021/12/13 12:32:41;;;;;;;19.20;11.43;;;9.50;99.90;;;;;;5059246;28;20461;-68
2021/12/13 12:35:12;;;;;;;13.75;10.38;;;9.40;99.90;;;;;;5045017;28;20029;-70
2021/12/13 12:38:03;;;;;;;12.10;9.68;;;9.40;99.90;;;;;;5058382;28;20017;-68
2021/12/13 12:40:40;;;;;;;14.98;10.43;;;9.40;99.90;;;;;;5062335;28;20108;-68
2021/12/13 12:43:09;;;;;;;19.42;10.90;;;9.40;99.90;;;;;;5059387;28;20120;-67
2021/12/13 12:45:37;;;;;;;11.05;9.25;;;9.30;99.90;;;;;;5062657;28;20113;-68
2021/12/13 12:48:43;;;;;;;12.30;9.25;;;9.30;99.90;;;;;;5063194;28;20029;-68
2021/12/13 12:51:17;;;;;;;23.58;9.00;;;9.30;99.90;;;;;;5061459;28;20108;-72
2021/12/13 12:53:45;;;;;;;11.98;9.18;;;9.20;99.90;;;;;;5065529;28;20467;-67
2021/12/13 12:56:19;;;;;;;10.40;8.25;;;9.20;99.90;;;;;;5066993;28;20037;-67
2021/12/13 12:58:53;;;;;;;13.63;8.40;;;9.20;99.90;;;;;;5067786;28;20478;-67
2021/12/13 13:01:25;;;;;;;11.25;8.38;;;9.20;99.90;;;;;;5067550;28;20043;-71
2021/12/13 13:03:52;;;;;;;10.10;8.88;;;9.20;99.90;;;;;;5068229;28;20025;-68
2021/12/13 13:06:24;;;;;;;11.88;7.63;;;9.20;99.90;;;;;;5067440;28;20020;-68
2021/12/13 13:08:53;;;;;;;9.45;7.15;;;9.20;99.90;;;;;;5067649;28;20035;-69
2021/12/13 13:11:29;;;;;;;13.40;8.68;;;9.30;99.90;;;;;;5067290;28;20036;-67
2021/12/13 13:14:16;;;;;;;7.70;6.47;;;9.30;99.90;;;;;;5067332;28;20024;-70
2021/12/13 13:16:47;;;;;;;10.77;6.78;;;9.30;99.90;;;;;;5067611;28;20033;-67
2021/12/13 13:19:23;;;;;;;10.88;7.50;;;9.20;99.90;;;;;;5066902;28;20540;-66
2021/12/13 13:21:49;;;;;;;7.28;6.57;;;9.20;99.90;;;;;;5066973;28;20032;-66
2021/12/13 13:24:15;;;;;;;7.47;5.90;;;9.20;99.90;;;;;;5067641;28;20509;-68
2021/12/13 13:26:44;;;;;;;14.15;6.65;;;9.20;99.90;;;;;;5067321;28;20048;-65
2021/12/13 13:29:14;;;;;;;9.43;6.03;;;9.20;99.90;;;;;;5071818;28;20103;-68
2021/12/13 13:32:00;;;;;;;9.50;6.38;;;9.20;99.90;;;;;;4942061;28;10000664;-69